sensor_id;sensor_type;location;lat;lon;timestamp;temperature;humidity
4896;DHT22;2463;49.948;8.472;2022-12-16T00:00:05;-5.20;99.90
4896;DHT22;2463;49.948;8.472;2022-12-16T00:02:33;-5.20;99.90
4896;DHT22;2463;49.948;8.472;2022-12-16T00:05:00;-5.20;99.90
4896;DHT22;2463;49.948;8.472;2022-12-16T00:07:27;-5.10;99.90
4896;DHT22;2463;49.948;8.472;2022-12-16T00:09:54;-5.20;99.90
4896;DHT22;2463;49.948;8.472;2022-12-16T00:12:21;-5.20;99.90
4896;DHT22;2463;49.948;8.472;2022-12-16T00:14:47;-5.10;99.90
4896;DHT22;2463;49.948;8.472;2022-12-16T00:17:14;-5.20;99.90
4896;DHT22;2463;49.948;8.472;2022-12-16T00:19:40;-5.20;99.90
4896;DHT22;2463;49.948;8.472;2022-12-16T00:22:07;-5.20;99.90
4896;DHT22;2463;49.948;8.472;2022-12-16T00:24:34;-5.10;99.90
4896;DHT22;2463;49.948;8.472;2022-12-16T00:27:00;-5.30;99.90
4896;DHT22;2463;49.948;8.472;2022-12-16T00:29:27;-5.30;99.90
4896;DHT22;2463;49.948;8.472;2022-12-16T00:31:54;-5.30;99.90
4896;DHT22;2463;49.948;8.472;2022-12-16T00:34:21;-5.30;99.90
4896;DHT22;2463;49.948;8.472;2022-12-16T00:36:47;-5.40;99.90
4896;DHT22;2463;49.948;8.472;2022-12-16T00:39:14;-5.40;99.90
4896;DHT22;2463;49.948;8.472;2022-12-16T00:41:41;-5.40;99.90
4896;DHT22;2463;49.948;8.472;2022-12-16T00:44:08;-5.40;99.90
4896;DHT22;2463;49.948;8.472;2022-12-16T00:46:34;-5.40;99.90
4896;DHT22;2463;49.948;8.472;2022-12-16T00:49:01;-5.40;99.90
4896;DHT22;2463;49.948;8.472;2022-12-16T00:51:28;-5.30;99.90
4896;DHT22;2463;49.948;8.472;2022-12-16T00:53:55;-5.30;99.90
4896;DHT22;2463;49.948;8.472;2022-12-16T00:56:21;-5.30;99.90
4896;DHT22;2463;49.948;8.472;2022-12-16T00:58:48;-5.40;99.90
4896;DHT22;2463;49.948;8.472;2022-12-16T01:01:16;-5.40;99.90
4896;DHT22;2463;49.948;8.472;2022-12-16T01:03:42;-5.40;99.90
4896;DHT22;2463;49.948;8.472;2022-12-16T01:06:12;-5.40;99.90
4896;DHT22;2463;49.948;8.472;2022-12-16T01:08:39;-5.40;99.90
4896;DHT22;2463;49.948;8.472;2022-12-16T01:11:08;-5.50;99.90
4896;DHT22;2463;49.948;8.472;2022-12-16T01:13:35;-5.50;99.90
4896;DHT22;2463;49.948;8.472;2022-12-16T01:16:02;-5.50;99.90
4896;DHT22;2463;49.948;8.472;2022-12-16T01:18:29;-5.50;99.90
4896;DHT22;2463;49.948;8.472;2022-12-16T01:21:07;-5.50;99.90
4896;DHT22;2463;49.948;8.472;2022-12-16T01:23:34;-5.50;99.90
4896;DHT22;2463;49.948;8.472;2022-12-16T01:26:02;-5.50;99.90
4896;DHT22;2463;49.948;8.472;2022-12-16T01:28:29;-5.60;99.90
4896;DHT22;2463;49.948;8.472;2022-12-16T01:30:59;-5.60;99.90
4896;DHT22;2463;49.948;8.472;2022-12-16T01:33:30;-5.60;99.90
4896;DHT22;2463;49.948;8.472;2022-12-16T01:36:04;-5.60;99.90
4896;DHT22;2463;49.948;8.472;2022-12-16T01:38:31;-5.70;99.90
4896;DHT22;2463;49.948;8.472;2022-12-16T01:40:59;-5.80;99.90
4896;DHT22;2463;49.948;8.472;2022-12-16T01:43:34;-5.80;99.90
4896;DHT22;2463;49.948;8.472;2022-12-16T01:48:51;-5.80;99.90
4896;DHT22;2463;49.948;8.472;2022-12-16T01:51:36;-5.70;99.90
4896;DHT22;2463;49.948;8.472;2022-12-16T01:54:14;-5.90;99.90
4896;DHT22;2463;49.948;8.472;2022-12-16T01:56:53;-5.90;99.90
4896;DHT22;2463;49.948;8.472;2022-12-16T01:59:22;-5.90;99.90
4896;DHT22;2463;49.948;8.472;2022-12-16T02:01:50;-5.80;99.90
4896;DHT22;2463;49.948;8.472;2022-12-16T02:04:17;-5.80;99.90
4896;DHT22;2463;49.948;8.472;2022-12-16T02:06:44;-5.90;99.90
4896;DHT22;2463;49.948;8.472;2022-12-16T02:09:13;-6.00;99.90
4896;DHT22;2463;49.948;8.472;2022-12-16T02:12:16;-6.00;99.90
4896;DHT22;2463;49.948;8.472;2022-12-16T02:15:43;-6.10;99.90
4896;DHT22;2463;49.948;8.472;2022-12-16T02:17:59;-6.10;99.90
4896;DHT22;2463;49.948;8.472;2022-12-16T02:34:42;-6.40;99.90
4896;DHT22;2463;49.948;8.472;2022-12-16T02:37:30;-6.50;99.90
4896;DHT22;2463;49.948;8.472;2022-12-16T02:40:00;-6.50;99.90
4896;DHT22;2463;49.948;8.472;2022-12-16T02:42:34;-6.70;99.90
4896;DHT22;2463;49.948;8.472;2022-12-16T02:45:20;-6.80;99.90
4896;DHT22;2463;49.948;8.472;2022-12-16T02:47:48;-6.80;99.90
4896;DHT22;2463;49.948;8.472;2022-12-16T02:52:44;-6.90;99.90
4896;DHT22;2463;49.948;8.472;2022-12-16T02:55:11;-6.90;99.90
4896;DHT22;2463;49.948;8.472;2022-12-16T02:58:18;-6.90;99.90
4896;DHT22;2463;49.948;8.472;2022-12-16T03:01:06;-7.00;99.90
4896;DHT22;2463;49.948;8.472;2022-12-16T03:03:42;-7.00;99.90
4896;DHT22;2463;49.948;8.472;2022-12-16T03:06:13;-7.00;99.90
4896;DHT22;2463;49.948;8.472;2022-12-16T03:08:43;-7.00;99.90
4896;DHT22;2463;49.948;8.472;2022-12-16T03:11:11;-7.00;99.90
4896;DHT22;2463;49.948;8.472;2022-12-16T03:13:44;-6.90;99.90
4896;DHT22;2463;49.948;8.472;2022-12-16T03:16:13;-7.00;99.90
4896;DHT22;2463;49.948;8.472;2022-12-16T03:18:43;-7.00;99.90
4896;DHT22;2463;49.948;8.472;2022-12-16T03:21:13;-7.00;99.90
4896;DHT22;2463;49.948;8.472;2022-12-16T03:23:54;-7.00;99.90
4896;DHT22;2463;49.948;8.472;2022-12-16T03:26:44;-7.10;99.90
4896;DHT22;2463;49.948;8.472;2022-12-16T03:32:03;-7.20;99.90
4896;DHT22;2463;49.948;8.472;2022-12-16T03:37:22;-7.30;99.90
4896;DHT22;2463;49.948;8.472;2022-12-16T03:39:52;-7.30;99.90
4896;DHT22;2463;49.948;8.472;2022-12-16T03:42:20;-7.30;99.90
4896;DHT22;2463;49.948;8.472;2022-12-16T03:44:48;-7.40;99.90
4896;DHT22;2463;49.948;8.472;2022-12-16T03:47:15;-7.40;99.90
4896;DHT22;2463;49.948;8.472;2022-12-16T03:49:49;-7.40;99.90
4896;DHT22;2463;49.948;8.472;2022-12-16T03:52:16;-7.40;99.90
4896;DHT22;2463;49.948;8.472;2022-12-16T03:54:42;-7.50;99.90
4896;DHT22;2463;49.948;8.472;2022-12-16T03:57:09;-7.40;99.90
4896;DHT22;2463;49.948;8.472;2022-12-16T03:59:41;-7.50;99.90
4896;DHT22;2463;49.948;8.472;2022-12-16T04:02:08;-7.50;99.90
4896;DHT22;2463;49.948;8.472;2022-12-16T04:04:35;-7.50;99.90
4896;DHT22;2463;49.948;8.472;2022-12-16T04:07:02;-7.40;99.90
4896;DHT22;2463;49.948;8.472;2022-12-16T04:09:50;-7.50;99.90
4896;DHT22;2463;49.948;8.472;2022-12-16T04:12:18;-7.60;99.90
4896;DHT22;2463;49.948;8.472;2022-12-16T04:15:04;-7.70;99.90
4896;DHT22;2463;49.948;8.472;2022-12-16T04:18:04;-7.70;99.90
4896;DHT22;2463;49.948;8.472;2022-12-16T04:20:52;-7.70;99.90
4896;DHT22;2463;49.948;8.472;2022-12-16T04:23:54;-7.80;99.90
4896;DHT22;2463;49.948;8.472;2022-12-16T04:26:39;-7.90;99.90
4896;DHT22;2463;49.948;8.472;2022-12-16T04:29:25;-7.90;99.90
4896;DHT22;2463;49.948;8.472;2022-12-16T04:31:51;-7.90;99.90
4896;DHT22;2463;49.948;8.472;2022-12-16T04:34:20;-7.90;99.90
4896;DHT22;2463;49.948;8.472;2022-12-16T04:36:56;-8.00;99.90
4896;DHT22;2463;49.948;8.472;2022-12-16T04:39:42;-8.00;99.90
4896;DHT22;2463;49.948;8.472;2022-12-16T04:42:27;-8.00;99.90
4896;DHT22;2463;49.948;8.472;2022-12-16T04:45:13;-8.00;99.90
4896;DHT22;2463;49.948;8.472;2022-12-16T04:47:59;-8.10;99.90
4896;DHT22;2463;49.948;8.472;2022-12-16T04:50:44;-8.10;99.90
4896;DHT22;2463;49.948;8.472;2022-12-16T04:53:30;-8.10;99.90
4896;DHT22;2463;49.948;8.472;2022-12-16T04:56:15;-8.20;99.90
4896;DHT22;2463;49.948;8.472;2022-12-16T04:59:00;-8.20;99.90
4896;DHT22;2463;49.948;8.472;2022-12-16T05:01:46;-8.20;99.90
4896;DHT22;2463;49.948;8.472;2022-12-16T05:04:31;-8.20;99.90
4896;DHT22;2463;49.948;8.472;2022-12-16T05:07:17;-8.20;99.90
4896;DHT22;2463;49.948;8.472;2022-12-16T05:10:05;-8.20;99.90
4896;DHT22;2463;49.948;8.472;2022-12-16T05:12:52;-8.20;99.90
4896;DHT22;2463;49.948;8.472;2022-12-16T05:15:38;-8.20;99.90
4896;DHT22;2463;49.948;8.472;2022-12-16T05:18:23;-8.20;99.90
4896;DHT22;2463;49.948;8.472;2022-12-16T05:21:09;-8.20;99.90
4896;DHT22;2463;49.948;8.472;2022-12-16T05:23:54;-8.20;99.90
4896;DHT22;2463;49.948;8.472;2022-12-16T05:26:39;-8.20;99.90
4896;DHT22;2463;49.948;8.472;2022-12-16T05:29:25;-8.20;99.90
4896;DHT22;2463;49.948;8.472;2022-12-16T05:32:10;-8.20;99.90
4896;DHT22;2463;49.948;8.472;2022-12-16T05:34:56;-8.20;99.90
4896;DHT22;2463;49.948;8.472;2022-12-16T05:37:41;-8.20;99.90
4896;DHT22;2463;49.948;8.472;2022-12-16T05:40:26;-8.20;99.90
4896;DHT22;2463;49.948;8.472;2022-12-16T05:43:12;-8.20;99.90
4896;DHT22;2463;49.948;8.472;2022-12-16T05:45:58;-8.20;99.90
4896;DHT22;2463;49.948;8.472;2022-12-16T05:48:43;-8.20;99.90
4896;DHT22;2463;49.948;8.472;2022-12-16T05:51:29;-8.30;99.90
4896;DHT22;2463;49.948;8.472;2022-12-16T05:54:14;-8.30;99.90
4896;DHT22;2463;49.948;8.472;2022-12-16T05:56:59;-8.40;99.90
4896;DHT22;2463;49.948;8.472;2022-12-16T05:59:45;-8.40;99.90
4896;DHT22;2463;49.948;8.472;2022-12-16T06:02:30;-8.50;99.90
4896;DHT22;2463;49.948;8.472;2022-12-16T06:05:16;-8.50;99.90
4896;DHT22;2463;49.948;8.472;2022-12-16T06:08:01;-8.50;99.90
4896;DHT22;2463;49.948;8.472;2022-12-16T06:10:47;-8.50;99.90
4896;DHT22;2463;49.948;8.472;2022-12-16T06:13:32;-8.50;99.90
4896;DHT22;2463;49.948;8.472;2022-12-16T06:16:17;-8.50;99.90
4896;DHT22;2463;49.948;8.472;2022-12-16T06:19:03;-8.50;99.90
4896;DHT22;2463;49.948;8.472;2022-12-16T06:21:48;-8.50;99.90
4896;DHT22;2463;49.948;8.472;2022-12-16T06:24:34;-8.50;99.90
4896;DHT22;2463;49.948;8.472;2022-12-16T06:27:19;-8.50;99.90
4896;DHT22;2463;49.948;8.472;2022-12-16T06:30:05;-8.60;99.90
4896;DHT22;2463;49.948;8.472;2022-12-16T06:32:51;-8.60;99.90
4896;DHT22;2463;49.948;8.472;2022-12-16T06:35:36;-8.70;99.90
4896;DHT22;2463;49.948;8.472;2022-12-16T06:38:21;-8.70;99.90
4896;DHT22;2463;49.948;8.472;2022-12-16T06:41:07;-8.70;99.90
4896;DHT22;2463;49.948;8.472;2022-12-16T06:43:53;-8.70;99.90
4896;DHT22;2463;49.948;8.472;2022-12-16T06:46:39;-8.70;99.90
4896;DHT22;2463;49.948;8.472;2022-12-16T06:49:24;-8.70;99.90
4896;DHT22;2463;49.948;8.472;2022-12-16T06:52:10;-8.70;99.90
4896;DHT22;2463;49.948;8.472;2022-12-16T06:54:55;-8.70;99.90
4896;DHT22;2463;49.948;8.472;2022-12-16T06:57:41;-8.70;99.90
4896;DHT22;2463;49.948;8.472;2022-12-16T07:00:28;-8.70;99.90
4896;DHT22;2463;49.948;8.472;2022-12-16T07:03:13;-8.70;99.90
4896;DHT22;2463;49.948;8.472;2022-12-16T07:06:01;-8.70;99.90
4896;DHT22;2463;49.948;8.472;2022-12-16T07:08:46;-8.80;99.90
4896;DHT22;2463;49.948;8.472;2022-12-16T07:11:32;-8.80;99.90
4896;DHT22;2463;49.948;8.472;2022-12-16T07:14:17;-8.80;99.90
4896;DHT22;2463;49.948;8.472;2022-12-16T07:17:02;-8.90;99.90
4896;DHT22;2463;49.948;8.472;2022-12-16T07:19:48;-8.90;99.90
4896;DHT22;2463;49.948;8.472;2022-12-16T07:22:34;-8.90;99.90
4896;DHT22;2463;49.948;8.472;2022-12-16T07:25:29;-8.90;99.90
4896;DHT22;2463;49.948;8.472;2022-12-16T07:28:14;-9.00;99.90
4896;DHT22;2463;49.948;8.472;2022-12-16T07:31:00;-9.00;99.90
4896;DHT22;2463;49.948;8.472;2022-12-16T07:33:46;-9.00;99.90
4896;DHT22;2463;49.948;8.472;2022-12-16T07:36:31;-8.90;99.90
4896;DHT22;2463;49.948;8.472;2022-12-16T07:39:16;-8.90;99.90
4896;DHT22;2463;49.948;8.472;2022-12-16T07:42:02;-8.90;99.90
4896;DHT22;2463;49.948;8.472;2022-12-16T07:44:47;-8.80;99.90
4896;DHT22;2463;49.948;8.472;2022-12-16T07:47:33;-8.80;99.90
4896;DHT22;2463;49.948;8.472;2022-12-16T07:50:20;-8.70;99.90
4896;DHT22;2463;49.948;8.472;2022-12-16T07:53:07;-8.70;99.90
4896;DHT22;2463;49.948;8.472;2022-12-16T07:55:57;-8.60;99.90
4896;DHT22;2463;49.948;8.472;2022-12-16T07:58:42;-8.50;99.90
4896;DHT22;2463;49.948;8.472;2022-12-16T08:01:27;-8.40;99.90
4896;DHT22;2463;49.948;8.472;2022-12-16T08:04:13;-8.40;99.90
4896;DHT22;2463;49.948;8.472;2022-12-16T08:06:58;-8.30;99.90
4896;DHT22;2463;49.948;8.472;2022-12-16T08:09:44;-8.20;99.90
4896;DHT22;2463;49.948;8.472;2022-12-16T08:12:29;-8.20;99.90
4896;DHT22;2463;49.948;8.472;2022-12-16T08:15:14;-8.20;99.90
4896;DHT22;2463;49.948;8.472;2022-12-16T08:18:00;-8.10;99.90
4896;DHT22;2463;49.948;8.472;2022-12-16T08:20:45;-8.00;99.90
4896;DHT22;2463;49.948;8.472;2022-12-16T08:23:31;-7.80;99.90
4896;DHT22;2463;49.948;8.472;2022-12-16T08:26:17;-7.70;99.90
4896;DHT22;2463;49.948;8.472;2022-12-16T08:29:02;-7.60;99.90
4896;DHT22;2463;49.948;8.472;2022-12-16T08:32:07;-7.40;99.90
4896;DHT22;2463;49.948;8.472;2022-12-16T08:34:52;-7.30;99.90
4896;DHT22;2463;49.948;8.472;2022-12-16T08:37:38;-7.20;99.90
4896;DHT22;2463;49.948;8.472;2022-12-16T08:40:23;-7.10;99.90
4896;DHT22;2463;49.948;8.472;2022-12-16T08:43:08;-7.00;99.90
4896;DHT22;2463;49.948;8.472;2022-12-16T08:45:55;-6.70;99.90
4896;DHT22;2463;49.948;8.472;2022-12-16T08:48:40;-6.70;99.90
4896;DHT22;2463;49.948;8.472;2022-12-16T08:51:25;-6.60;99.90
4896;DHT22;2463;49.948;8.472;2022-12-16T08:54:11;-6.40;99.90
4896;DHT22;2463;49.948;8.472;2022-12-16T08:56:57;-6.20;99.90
4896;DHT22;2463;49.948;8.472;2022-12-16T08:59:42;-6.00;99.90
4896;DHT22;2463;49.948;8.472;2022-12-16T09:02:28;-5.60;99.90
4896;DHT22;2463;49.948;8.472;2022-12-16T09:05:21;-5.50;99.90
4896;DHT22;2463;49.948;8.472;2022-12-16T09:08:07;-5.20;99.90
4896;DHT22;2463;49.948;8.472;2022-12-16T09:10:52;-5.00;99.90
4896;DHT22;2463;49.948;8.472;2022-12-16T09:13:37;-4.60;99.90
4896;DHT22;2463;49.948;8.472;2022-12-16T09:16:22;-4.40;99.90
4896;DHT22;2463;49.948;8.472;2022-12-16T09:19:09;-4.00;99.90
4896;DHT22;2463;49.948;8.472;2022-12-16T09:21:54;-3.70;99.90
4896;DHT22;2463;49.948;8.472;2022-12-16T09:24:39;-2.40;99.90
4896;DHT22;2463;49.948;8.472;2022-12-16T09:27:25;0.00;99.90
4896;DHT22;2463;49.948;8.472;2022-12-16T09:30:10;3.30;99.90
4896;DHT22;2463;49.948;8.472;2022-12-16T09:32:56;6.60;99.90
4896;DHT22;2463;49.948;8.472;2022-12-16T09:35:41;9.20;99.90
4896;DHT22;2463;49.948;8.472;2022-12-16T09:38:26;11.70;99.60
4896;DHT22;2463;49.948;8.472;2022-12-16T09:41:34;14.10;96.60
4896;DHT22;2463;49.948;8.472;2022-12-16T09:47:46;18.40;79.80
4896;DHT22;2463;49.948;8.472;2022-12-16T09:50:36;20.00;69.10
4896;DHT22;2463;49.948;8.472;2022-12-16T09:53:22;21.50;60.10
4896;DHT22;2463;49.948;8.472;2022-12-16T09:56:24;22.40;54.20
4896;DHT22;2463;49.948;8.472;2022-12-16T09:59:15;23.40;51.50
4896;DHT22;2463;49.948;8.472;2022-12-16T10:02:01;24.20;48.40
4896;DHT22;2463;49.948;8.472;2022-12-16T10:04:50;24.80;45.40
4896;DHT22;2463;49.948;8.472;2022-12-16T10:07:47;25.40;43.80
4896;DHT22;2463;49.948;8.472;2022-12-16T10:13:49;25.80;40.20
4896;DHT22;2463;49.948;8.472;2022-12-16T10:17:02;25.70;39.30
4896;DHT22;2463;49.948;8.472;2022-12-16T10:20:10;25.40;39.20
4896;DHT22;2463;49.948;8.472;2022-12-16T10:23:16;24.60;39.40
4896;DHT22;2463;49.948;8.472;2022-12-16T10:26:48;24.30;39.30
4896;DHT22;2463;49.948;8.472;2022-12-16T10:29:39;24.40;39.30
4896;DHT22;2463;49.948;8.472;2022-12-16T10:32:34;24.60;39.10
4896;DHT22;2463;49.948;8.472;2022-12-16T10:35:25;25.10;38.60
4896;DHT22;2463;49.948;8.472;2022-12-16T10:38:24;25.50;38.60
4896;DHT22;2463;49.948;8.472;2022-12-16T10:41:12;26.20;38.00
4896;DHT22;2463;49.948;8.472;2022-12-16T10:44:02;26.20;36.80
4896;DHT22;2463;49.948;8.472;2022-12-16T10:46:48;26.40;37.80
4896;DHT22;2463;49.948;8.472;2022-12-16T10:49:34;26.70;38.00
4896;DHT22;2463;49.948;8.472;2022-12-16T10:52:20;27.10;37.10
4896;DHT22;2463;49.948;8.472;2022-12-16T10:58:45;27.70;36.50
4896;DHT22;2463;49.948;8.472;2022-12-16T11:01:30;27.80;36.00
4896;DHT22;2463;49.948;8.472;2022-12-16T11:04:45;28.20;37.70
4896;DHT22;2463;49.948;8.472;2022-12-16T11:13:28;28.80;36.40
4896;DHT22;2463;49.948;8.472;2022-12-16T11:16:22;29.00;36.90
4896;DHT22;2463;49.948;8.472;2022-12-16T11:19:22;28.80;36.00
4896;DHT22;2463;49.948;8.472;2022-12-16T11:25:14;28.90;34.10
4896;DHT22;2463;49.948;8.472;2022-12-16T11:28:13;28.90;34.00
4896;DHT22;2463;49.948;8.472;2022-12-16T11:31:05;28.60;34.60
4896;DHT22;2463;49.948;8.472;2022-12-16T11:33:52;28.70;34.40
4896;DHT22;2463;49.948;8.472;2022-12-16T11:36:39;28.70;34.40
4896;DHT22;2463;49.948;8.472;2022-12-16T11:39:28;28.50;34.00
4896;DHT22;2463;49.948;8.472;2022-12-16T11:42:26;28.70;34.60
4896;DHT22;2463;49.948;8.472;2022-12-16T11:45:16;28.30;34.50
4896;DHT22;2463;49.948;8.472;2022-12-16T11:48:27;27.50;33.50
4896;DHT22;2463;49.948;8.472;2022-12-16T11:51:18;26.40;35.10
4896;DHT22;2463;49.948;8.472;2022-12-16T11:54:14;25.70;35.20
4896;DHT22;2463;49.948;8.472;2022-12-16T11:57:03;24.30;33.70
4896;DHT22;2463;49.948;8.472;2022-12-16T12:00:00;23.90;36.20
4896;DHT22;2463;49.948;8.472;2022-12-16T12:11:30;23.90;36.80
4896;DHT22;2463;49.948;8.472;2022-12-16T12:26:29;19.90;37.80
4896;DHT22;2463;49.948;8.472;2022-12-16T12:29:31;19.60;39.10
4896;DHT22;2463;49.948;8.472;2022-12-16T12:36:00;19.30;39.60
4896;DHT22;2463;49.948;8.472;2022-12-16T12:45:03;21.80;38.20
4896;DHT22;2463;49.948;8.472;2022-12-16T12:48:12;22.20;36.60
4896;DHT22;2463;49.948;8.472;2022-12-16T12:51:09;22.50;36.80
4896;DHT22;2463;49.948;8.472;2022-12-16T12:54:22;23.20;37.40
4896;DHT22;2463;49.948;8.472;2022-12-16T12:57:12;23.30;36.00
4896;DHT22;2463;49.948;8.472;2022-12-16T13:05:59;22.90;35.40
4896;DHT22;2463;49.948;8.472;2022-12-16T13:08:56;23.00;35.50
4896;DHT22;2463;49.948;8.472;2022-12-16T13:14:51;22.90;34.90
4896;DHT22;2463;49.948;8.472;2022-12-16T13:18:18;23.00;35.30
4896;DHT22;2463;49.948;8.472;2022-12-16T13:21:40;22.80;35.30
4896;DHT22;2463;49.948;8.472;2022-12-16T13:24:39;22.50;35.80
4896;DHT22;2463;49.948;8.472;2022-12-16T13:27:26;22.40;35.80
4896;DHT22;2463;49.948;8.472;2022-12-16T13:33:04;22.80;35.40
4896;DHT22;2463;49.948;8.472;2022-12-16T13:35:53;22.20;35.50
4896;DHT22;2463;49.948;8.472;2022-12-16T13:38:49;22.20;35.20
4896;DHT22;2463;49.948;8.472;2022-12-16T13:47:32;21.40;35.60
4896;DHT22;2463;49.948;8.472;2022-12-16T13:50:37;20.40;35.00
4896;DHT22;2463;49.948;8.472;2022-12-16T13:53:42;20.20;35.80
4896;DHT22;2463;49.948;8.472;2022-12-16T13:56:38;19.50;36.40
4896;DHT22;2463;49.948;8.472;2022-12-16T13:59:27;18.90;36.90
4896;DHT22;2463;49.948;8.472;2022-12-16T14:05:19;15.80;38.40
4896;DHT22;2463;49.948;8.472;2022-12-16T14:08:12;13.80;40.20
4896;DHT22;2463;49.948;8.472;2022-12-16T14:11:02;11.70;42.50
4896;DHT22;2463;49.948;8.472;2022-12-16T14:17:00;8.90;49.10
4896;DHT22;2463;49.948;8.472;2022-12-16T14:20:02;7.90;51.80
4896;DHT22;2463;49.948;8.472;2022-12-16T14:23:02;7.00;55.00
4896;DHT22;2463;49.948;8.472;2022-12-16T14:26:12;6.20;59.20
4896;DHT22;2463;49.948;8.472;2022-12-16T14:28:59;5.50;63.60
4896;DHT22;2463;49.948;8.472;2022-12-16T14:31:45;5.00;69.00
4896;DHT22;2463;49.948;8.472;2022-12-16T14:34:35;4.60;74.60
4896;DHT22;2463;49.948;8.472;2022-12-16T14:37:28;4.30;79.80
4896;DHT22;2463;49.948;8.472;2022-12-16T14:40:27;4.00;85.50
4896;DHT22;2463;49.948;8.472;2022-12-16T14:43:22;3.70;90.10
4896;DHT22;2463;49.948;8.472;2022-12-16T14:46:42;3.50;92.00
4896;DHT22;2463;49.948;8.472;2022-12-16T14:49:33;3.20;94.80
4896;DHT22;2463;49.948;8.472;2022-12-16T14:52:24;3.00;96.90
4896;DHT22;2463;49.948;8.472;2022-12-16T14:55:15;2.90;98.30
4896;DHT22;2463;49.948;8.472;2022-12-16T14:58:21;2.70;99.50
4896;DHT22;2463;49.948;8.472;2022-12-16T15:01:19;2.60;99.90
4896;DHT22;2463;49.948;8.472;2022-12-16T15:04:15;2.40;99.90
4896;DHT22;2463;49.948;8.472;2022-12-16T15:07:17;2.20;99.90
4896;DHT22;2463;49.948;8.472;2022-12-16T15:10:03;2.00;99.90
4896;DHT22;2463;49.948;8.472;2022-12-16T15:13:16;1.80;99.90
4896;DHT22;2463;49.948;8.472;2022-12-16T15:16:04;1.70;99.90
4896;DHT22;2463;49.948;8.472;2022-12-16T15:18:57;1.50;99.90
4896;DHT22;2463;49.948;8.472;2022-12-16T15:21:43;1.40;99.90
4896;DHT22;2463;49.948;8.472;2022-12-16T15:24:34;1.20;99.90
4896;DHT22;2463;49.948;8.472;2022-12-16T15:27:22;1.10;99.90
4896;DHT22;2463;49.948;8.472;2022-12-16T15:33:44;0.90;99.90
4896;DHT22;2463;49.948;8.472;2022-12-16T15:36:34;0.80;99.90
4896;DHT22;2463;49.948;8.472;2022-12-16T15:39:28;0.70;99.90
4896;DHT22;2463;49.948;8.472;2022-12-16T15:42:28;0.60;99.90
4896;DHT22;2463;49.948;8.472;2022-12-16T15:45:17;0.50;99.90
4896;DHT22;2463;49.948;8.472;2022-12-16T15:48:28;0.40;99.90
4896;DHT22;2463;49.948;8.472;2022-12-16T15:54:22;0.30;99.90
4896;DHT22;2463;49.948;8.472;2022-12-16T15:57:26;0.20;99.90
4896;DHT22;2463;49.948;8.472;2022-12-16T16:00:29;0.20;99.90
4896;DHT22;2463;49.948;8.472;2022-12-16T16:03:26;0.00;99.90
4896;DHT22;2463;49.948;8.472;2022-12-16T16:06:19;-0.10;99.90
4896;DHT22;2463;49.948;8.472;2022-12-16T16:11:58;-0.20;99.90
4896;DHT22;2463;49.948;8.472;2022-12-16T16:14:44;-0.20;99.90
4896;DHT22;2463;49.948;8.472;2022-12-16T16:17:29;-0.30;99.90
4896;DHT22;2463;49.948;8.472;2022-12-16T16:20:16;-0.50;99.90
4896;DHT22;2463;49.948;8.472;2022-12-16T16:23:02;-0.50;99.90
4896;DHT22;2463;49.948;8.472;2022-12-16T16:25:48;-0.60;99.90
4896;DHT22;2463;49.948;8.472;2022-12-16T16:28:33;-0.70;99.90
4896;DHT22;2463;49.948;8.472;2022-12-16T16:31:18;-0.80;99.90
4896;DHT22;2463;49.948;8.472;2022-12-16T16:34:04;-0.90;99.90
4896;DHT22;2463;49.948;8.472;2022-12-16T16:36:52;-0.90;99.90
4896;DHT22;2463;49.948;8.472;2022-12-16T16:39:39;-1.00;99.90
4896;DHT22;2463;49.948;8.472;2022-12-16T16:42:25;-1.10;99.90
4896;DHT22;2463;49.948;8.472;2022-12-16T16:45:11;-1.30;99.90
4896;DHT22;2463;49.948;8.472;2022-12-16T16:48:12;-1.40;99.90
4896;DHT22;2463;49.948;8.472;2022-12-16T16:50:58;-1.50;99.90
4896;DHT22;2463;49.948;8.472;2022-12-16T16:53:44;-1.60;99.90
4896;DHT22;2463;49.948;8.472;2022-12-16T16:56:32;-1.60;99.90
4896;DHT22;2463;49.948;8.472;2022-12-16T16:59:17;-1.70;99.90
4896;DHT22;2463;49.948;8.472;2022-12-16T17:02:23;-1.70;99.90
4896;DHT22;2463;49.948;8.472;2022-12-16T17:05:10;-1.80;99.90
4896;DHT22;2463;49.948;8.472;2022-12-16T17:07:56;-2.00;99.90
4896;DHT22;2463;49.948;8.472;2022-12-16T17:10:41;-2.00;99.90
4896;DHT22;2463;49.948;8.472;2022-12-16T17:13:27;-2.10;99.90
4896;DHT22;2463;49.948;8.472;2022-12-16T17:16:13;-2.10;99.90
4896;DHT22;2463;49.948;8.472;2022-12-16T17:18:58;-2.10;99.90
4896;DHT22;2463;49.948;8.472;2022-12-16T17:21:43;-2.10;99.90
4896;DHT22;2463;49.948;8.472;2022-12-16T17:24:29;-2.10;99.90
4896;DHT22;2463;49.948;8.472;2022-12-16T17:27:22;-2.20;99.90
4896;DHT22;2463;49.948;8.472;2022-12-16T17:30:25;-2.20;99.90
4896;DHT22;2463;49.948;8.472;2022-12-16T17:33:14;-2.30;99.90
4896;DHT22;2463;49.948;8.472;2022-12-16T17:36:00;-2.30;99.90
4896;DHT22;2463;49.948;8.472;2022-12-16T17:38:45;-2.30;99.90
4896;DHT22;2463;49.948;8.472;2022-12-16T17:41:32;-2.40;99.90
4896;DHT22;2463;49.948;8.472;2022-12-16T17:44:17;-2.40;99.90
4896;DHT22;2463;49.948;8.472;2022-12-16T17:47:03;-2.50;99.90
4896;DHT22;2463;49.948;8.472;2022-12-16T17:49:48;-2.50;99.90
4896;DHT22;2463;49.948;8.472;2022-12-16T17:52:34;-2.60;99.90
4896;DHT22;2463;49.948;8.472;2022-12-16T17:55:19;-2.60;99.90
4896;DHT22;2463;49.948;8.472;2022-12-16T17:58:05;-2.70;99.90
4896;DHT22;2463;49.948;8.472;2022-12-16T18:00:50;-2.80;99.90
4896;DHT22;2463;49.948;8.472;2022-12-16T18:03:35;-2.80;99.90
4896;DHT22;2463;49.948;8.472;2022-12-16T18:06:21;-2.90;99.90
4896;DHT22;2463;49.948;8.472;2022-12-16T18:09:06;-3.00;99.90
4896;DHT22;2463;49.948;8.472;2022-12-16T18:11:52;-3.10;99.90
4896;DHT22;2463;49.948;8.472;2022-12-16T18:14:37;-3.10;99.90
4896;DHT22;2463;49.948;8.472;2022-12-16T18:17:22;-3.10;99.90
4896;DHT22;2463;49.948;8.472;2022-12-16T18:20:08;-3.20;99.90
4896;DHT22;2463;49.948;8.472;2022-12-16T18:22:54;-3.30;99.90
4896;DHT22;2463;49.948;8.472;2022-12-16T18:25:39;-3.30;99.90
4896;DHT22;2463;49.948;8.472;2022-12-16T18:28:25;-3.40;99.90
4896;DHT22;2463;49.948;8.472;2022-12-16T18:31:11;-3.40;99.90
4896;DHT22;2463;49.948;8.472;2022-12-16T18:33:56;-3.50;99.90
4896;DHT22;2463;49.948;8.472;2022-12-16T18:36:42;-3.60;99.90
4896;DHT22;2463;49.948;8.472;2022-12-16T18:39:27;-3.60;99.90
4896;DHT22;2463;49.948;8.472;2022-12-16T18:42:13;-3.70;99.90
4896;DHT22;2463;49.948;8.472;2022-12-16T18:44:58;-3.80;99.90
4896;DHT22;2463;49.948;8.472;2022-12-16T18:47:43;-3.80;99.90
4896;DHT22;2463;49.948;8.472;2022-12-16T18:50:29;-3.90;99.90
4896;DHT22;2463;49.948;8.472;2022-12-16T18:53:14;-3.90;99.90
4896;DHT22;2463;49.948;8.472;2022-12-16T18:56:02;-4.00;99.90
4896;DHT22;2463;49.948;8.472;2022-12-16T18:58:47;-4.10;99.90
4896;DHT22;2463;49.948;8.472;2022-12-16T19:01:33;-4.20;99.90
4896;DHT22;2463;49.948;8.472;2022-12-16T19:04:18;-4.30;99.90
4896;DHT22;2463;49.948;8.472;2022-12-16T19:07:03;-4.30;99.90
4896;DHT22;2463;49.948;8.472;2022-12-16T19:09:49;-4.40;99.90
4896;DHT22;2463;49.948;8.472;2022-12-16T19:12:34;-4.40;99.90
4896;DHT22;2463;49.948;8.472;2022-12-16T19:15:20;-4.40;99.90
4896;DHT22;2463;49.948;8.472;2022-12-16T19:18:13;-4.40;99.90
4896;DHT22;2463;49.948;8.472;2022-12-16T19:20:59;-4.40;99.90
4896;DHT22;2463;49.948;8.472;2022-12-16T19:23:44;-4.50;99.90
4896;DHT22;2463;49.948;8.472;2022-12-16T19:26:32;-4.60;99.90
4896;DHT22;2463;49.948;8.472;2022-12-16T19:29:17;-4.60;99.90
4896;DHT22;2463;49.948;8.472;2022-12-16T19:32:02;-4.70;99.90
4896;DHT22;2463;49.948;8.472;2022-12-16T19:34:48;-4.70;99.90
4896;DHT22;2463;49.948;8.472;2022-12-16T19:37:34;-4.70;99.90
4896;DHT22;2463;49.948;8.472;2022-12-16T19:40:19;-4.80;99.90
4896;DHT22;2463;49.948;8.472;2022-12-16T19:43:04;-4.80;99.90
4896;DHT22;2463;49.948;8.472;2022-12-16T19:45:52;-4.90;99.90